Weather History for North Bend, OR

Change the Weather History Date:

Saturday, December 31, 2011

  Actual Average Record
Temperature  
Mean Temperature 41 °F 45 °F  
Max Temperature 46 °F 51 °F 66 °F (1996)
Min Temperature 36 °F 40 °F 22 °F (1918)
Degree Days  
Heating Degree Days 24 20  
Month to date heating degree days 680 613  
Since 1 July heating degree days 2031 2061  
Cooling Degree Days 0 0  
Month to date cooling degree days 0 0  
Year to date cooling degree days 1 2  
Moisture  
Dew Point 31 °F    
Average Humidity 69    
Maximum Humidity 76    
Minimum Humidity 60    
Precipitation  
Precipitation 0.00 in 0.34 in 2.06 in (2009)
Month to date precipitation 2.75 11.13  
Year to date precipitation 39.16 64.91  
Sea Level Pressure  
Sea Level Pressure 30.29 in    
Wind  
Wind Speed 7 mph (SE)    
Max Wind Speed 10 mph    
Max Gust Speed 11 mph    
Visibility 10 miles    
Events      
T = Trace of Precipitation, MM = Missing Value Source: NWS Daily Summary

Daily Weather History Graph

Daily Weather History Graph

Search for Another Location

Airport:

Trip Planner

Search our weather history database for the weather conditions in past years. The results will help you decide how hot, cold, wet, or windy it might be!

Date:

Astronomy

Dec. 31, 2011 Rise Set
Actual Time 7:49 AM PST 4:50 PM PST
Civil Twilight 7:17 AM PST 5:23 PM PST
Nautical Twilight 6:41 AM PST 5:59 PM PST
Astronomical Twilight 6:06 AM PST 6:33 PM PST
Moon 11:23 AM PST (12/31) No Moon Set
Length of Visible Light 10h 05m
Length of Day
9h 00m
Waxing Crescent, 46% of the Moon is Illuminated
Dec 31
Waxing Crescent
Dec 31
First Quarter
Jan 8
Full
Jan 16
Last Quarter
Jan 22
New

Hourly Weather History & Observations

Time (PST) Temp. Windchill Dew Point Humidity Pressure Visibility Wind Dir Wind Speed Gust Speed Precip Events Conditions
12:15 AM 35.6 °F 29.9 °F 28.4 °F 75% 30.40 in 1.5 mi SSE 6.9 mph - N/A   Overcast
12:35 AM 37.4 °F 30.8 °F 30.2 °F 75% 30.39 in 5.0 mi SE 9.2 mph - N/A   Scattered Clouds
12:55 AM 37.4 °F 30.8 °F 30.2 °F 75% 30.39 in 10.0 mi SE 9.2 mph - N/A   Partly Cloudy
1:15 AM 37.4 °F 30.8 °F 30.2 °F 75% 30.39 in 10.0 mi SE 9.2 mph - N/A   Mostly Cloudy
1:35 AM 37.4 °F 31.4 °F 30.2 °F 75% 30.41 in 10.0 mi SE 8.1 mph - N/A   Mostly Cloudy
1:55 AM 37.4 °F 32.1 °F 30.2 °F 75% 30.41 in 10.0 mi SE 6.9 mph - N/A   Scattered Clouds
2:15 AM 37.4 °F 30.8 °F 30.2 °F 75% 30.41 in 10.0 mi SE 9.2 mph - N/A   Overcast
2:35 AM 37.4 °F 31.4 °F 30.2 °F 75% 30.42 in 10.0 mi South 8.1 mph - N/A   Overcast
2:55 AM 35.6 °F 32.8 °F 28.4 °F 75% 30.42 in 10.0 mi SSE 3.5 mph - N/A   Overcast
3:15 AM 37.4 °F 31.4 °F 30.2 °F 75% 30.40 in 10.0 mi SE 8.1 mph - N/A   Overcast
3:35 AM 35.6 °F 30.7 °F 28.4 °F 75% 30.40 in 10.0 mi SE 5.8 mph - N/A   Mostly Cloudy
3:55 AM 35.6 °F 29.9 °F 28.4 °F 75% 30.38 in 10.0 mi SE 6.9 mph - N/A   Partly Cloudy
4:15 AM 35.6 °F 31.7 °F 26.6 °F 70% 30.38 in 10.0 mi ESE 4.6 mph - N/A   Clear
4:35 AM 35.6 °F 29.9 °F 28.4 °F 75% 30.37 in 10.0 mi ESE 6.9 mph - N/A   Clear
4:55 AM 35.6 °F 29.9 °F 28.4 °F 75% 30.36 in 10.0 mi SE 6.9 mph - N/A   Clear
5:15 AM 35.6 °F 30.7 °F 28.4 °F 75% 30.36 in 10.0 mi SE 5.8 mph - N/A   Clear
5:35 AM 35.6 °F 28.6 °F 28.4 °F 75% 30.34 in 10.0 mi SE 9.2 mph - N/A   Clear
5:55 AM 35.6 °F 29.2 °F 28.4 °F 75% 30.35 in 10.0 mi SE 8.1 mph - N/A   Clear
6:15 AM 35.6 °F 29.2 °F 28.4 °F 75% 30.34 in 10.0 mi ESE 8.1 mph - N/A   Clear
6:35 AM 35.6 °F 29.2 °F 28.4 °F 75% 30.34 in 10.0 mi ESE 8.1 mph - N/A   Clear
6:55 AM 35.6 °F 29.2 °F 28.4 °F 75% 30.33 in 10.0 mi ESE 8.1 mph - N/A   Clear
7:15 AM 35.6 °F 30.7 °F 26.6 °F 70% 30.33 in 10.0 mi ESE 5.8 mph - N/A   Clear
7:35 AM 35.6 °F 29.2 °F 28.4 °F 75% 30.32 in 10.0 mi ESE 8.1 mph - N/A   Clear
7:55 AM 37.4 °F 31.4 °F 28.4 °F 70% 30.31 in 10.0 mi ESE 8.1 mph - N/A   Clear
8:15 AM 37.4 °F 30.3 °F 28.4 °F 70% 30.30 in 10.0 mi East 10.4 mph - N/A   Clear
8:35 AM 37.4 °F 30.3 °F 28.4 °F 70% 30.29 in 10.0 mi ESE 10.4 mph - N/A   Clear
8:55 AM 39.2 °F 35.9 °F 30.2 °F 70% 30.31 in 10.0 mi ESE 4.6 mph - N/A   Clear
9:15 AM 37.4 °F 33.8 °F 28.4 °F 70% 30.31 in 10.0 mi SSE 4.6 mph - N/A   Clear
9:35 AM 39.2 °F 34.2 °F 30.2 °F 70% 30.31 in 10.0 mi ESE 6.9 mph - N/A   Clear
9:55 AM 41.0 °F 36.4 °F 32.0 °F 70% 30.32 in 10.0 mi ESE 6.9 mph - N/A   Clear
10:15 AM 42.8 °F - 30.2 °F 61% 30.32 in 10.0 mi Calm Calm - N/A   Clear
10:35 AM 44.6 °F 42.2 °F 33.8 °F 66% 30.30 in 10.0 mi SE 4.6 mph - N/A   Clear
10:55 AM 44.6 °F 40.7 °F 33.8 °F 66% 30.30 in 10.0 mi SE 6.9 mph - N/A   Partly Cloudy
11:15 AM 44.6 °F 41.4 °F 33.8 °F 66% 30.30 in 10.0 mi SSE 5.8 mph - N/A   Mostly Cloudy
11:35 AM 44.6 °F 40.7 °F 33.8 °F 66% 30.28 in 10.0 mi SE 6.9 mph - N/A   Overcast
11:55 AM 44.6 °F 41.4 °F 33.8 °F 66% 30.28 in 10.0 mi SE 5.8 mph - N/A   Overcast
12:15 PM 44.6 °F 40.2 °F 33.8 °F 66% 30.27 in 10.0 mi ESE 8.1 mph - N/A   Overcast
12:35 PM 44.6 °F 42.2 °F 33.8 °F 66% 30.25 in 10.0 mi SE 4.6 mph - N/A   Overcast
1:15 PM 44.6 °F 40.2 °F 33.8 °F 66% 30.25 in 10.0 mi SE 8.1 mph - N/A   Overcast
1:35 PM 44.6 °F 40.2 °F 33.8 °F 66% 30.25 in 10.0 mi ESE 8.1 mph - N/A   Overcast
1:55 PM 46.4 °F 42.9 °F 33.8 °F 62% 30.25 in 10.0 mi ESE 6.9 mph - N/A   Overcast
2:15 PM 46.4 °F 44.3 °F 33.8 °F 62% 30.25 in 10.0 mi SE 4.6 mph - N/A   Overcast
2:35 PM 46.4 °F 44.3 °F 33.8 °F 62% 30.27 in 10.0 mi ESE 4.6 mph - N/A   Overcast
2:55 PM 46.4 °F 44.3 °F 33.8 °F 62% 30.26 in 10.0 mi SE 4.6 mph - N/A   Overcast
3:15 PM 46.4 °F 43.5 °F 35.6 °F 66% 30.25 in 10.0 mi SE 5.8 mph - N/A   Overcast
4:15 PM 44.6 °F 40.7 °F 33.8 °F 66% 30.24 in 10.0 mi SE 6.9 mph - N/A   Overcast
4:35 PM 44.6 °F 40.7 °F 33.8 °F 66% 30.23 in 10.0 mi SSE 6.9 mph - N/A   Mostly Cloudy
4:55 PM 42.8 °F 38.6 °F 32.0 °F 66% 30.22 in 10.0 mi SSE 6.9 mph - N/A   Clear
5:15 PM 42.8 °F 38.6 °F 32.0 °F 66% 30.22 in 10.0 mi SE 6.9 mph - N/A   Clear
5:35 PM 42.8 °F 39.3 °F 32.0 °F 66% 30.22 in 10.0 mi SE 5.8 mph - N/A   Scattered Clouds
5:55 PM 42.8 °F 38.0 °F 32.0 °F 66% 30.22 in 10.0 mi SE 8.1 mph - N/A   Mostly Cloudy
6:15 PM 42.8 °F 40.1 °F 32.0 °F 66% 30.23 in 10.0 mi SSE 4.6 mph - N/A   Clear
6:35 PM 41.0 °F 37.1 °F 30.2 °F 65% 30.22 in 10.0 mi SE 5.8 mph - N/A   Clear
6:55 PM 41.0 °F 34.3 °F 30.2 °F 65% 30.20 in 10.0 mi SE 11.5 mph - N/A   Clear
7:15 PM 41.0 °F 35.2 °F 30.2 °F 65% 30.20 in 10.0 mi SSE 9.2 mph - N/A   Clear
7:35 PM 39.2 °F 34.2 °F 30.2 °F 70% 30.21 in 10.0 mi SE 6.9 mph - N/A   Clear
7:55 PM 39.2 °F 34.2 °F 30.2 °F 70% 30.21 in 10.0 mi SE 6.9 mph - N/A   Clear
8:15 PM 41.0 °F 34.7 °F 30.2 °F 65% 30.20 in 10.0 mi SE 10.4 mph - N/A   Clear
8:35 PM 41.0 °F 35.2 °F 30.2 °F 65% 30.19 in 10.0 mi ESE 9.2 mph - N/A   Partly Cloudy
8:55 PM 41.0 °F 34.7 °F 30.2 °F 65% 30.20 in 10.0 mi SSE 10.4 mph - N/A   Partly Cloudy
9:15 PM 41.0 °F 35.8 °F 30.2 °F 65% 30.20 in 10.0 mi SSE 8.1 mph - N/A   Clear
9:35 PM 42.8 °F 39.3 °F 30.2 °F 61% 30.20 in 10.0 mi SE 5.8 mph - N/A   Clear
9:55 PM 42.8 °F 37.5 °F 30.2 °F 61% 30.20 in 10.0 mi SE 9.2 mph - N/A   Partly Cloudy
10:15 PM 42.8 °F 36.6 °F 30.2 °F 61% 30.20 in 10.0 mi SSE 11.5 mph - N/A   Clear
10:35 PM 42.8 °F 37.0 °F 30.2 °F 61% 30.21 in 10.0 mi SSE 10.4 mph - N/A   Clear
10:55 PM 42.8 °F 38.0 °F 30.2 °F 61% 30.21 in 10.0 mi SSE 8.1 mph - N/A   Clear
11:15 PM 41.0 °F 38.0 °F 30.2 °F 65% 30.22 in 10.0 mi SSE 4.6 mph - N/A   Clear
11:35 PM 39.2 °F 34.2 °F 30.2 °F 70% 30.21 in 10.0 mi SE 6.9 mph - N/A   Clear
11:55 PM 39.2 °F 33.0 °F 30.2 °F 70% 30.20 in 10.0 mi SE 9.2 mph - N/A   Clear